createdAt,value
2017-08-18T00:01:21.623Z,68.59
2017-08-18T00:03:49.035Z,69.89
2017-08-18T00:06:16.430Z,69.16
2017-08-18T00:08:43.856Z,69.06
2017-08-18T00:11:11.248Z,69.87
2017-08-18T00:13:38.660Z,70.28
2017-08-18T00:16:06.067Z,68.83
2017-08-18T00:18:33.470Z,70.48
2017-08-18T00:21:00.893Z,69.94
2017-08-18T00:23:28.283Z,70.31
2017-08-18T00:25:55.682Z,70.89
2017-08-18T00:28:23.082Z,70.27
2017-08-18T00:30:50.491Z,71.44
2017-08-18T00:33:17.915Z,72.01
2017-08-18T00:35:45.314Z,72.43
2017-08-18T00:38:12.936Z,72.19
2017-08-18T00:40:40.336Z,71.85
2017-08-18T00:43:07.735Z,72.07
2017-08-18T00:45:35.135Z,71.75
2017-08-18T00:48:02.535Z,71.46
2017-08-18T00:50:29.934Z,71.99
2017-08-18T00:52:57.343Z,71.92
2017-08-18T00:55:24.742Z,71.89
2017-08-18T00:57:52.147Z,72.42
2017-08-18T01:00:19.547Z,72.18
2017-08-18T01:02:46.947Z,72.51
2017-08-18T01:05:14.355Z,72.17
2017-08-18T01:07:41.746Z,72.75
2017-08-18T01:10:09.147Z,72.90
2017-08-18T01:12:36.539Z,73.00
2017-08-18T01:15:03.958Z,72.56
2017-08-18T01:17:31.350Z,73.20
2017-08-18T01:19:58.754Z,72.46
2017-08-18T01:22:26.161Z,72.50
2017-08-18T01:24:53.591Z,72.92
2017-08-18T01:27:20.995Z,71.71
2017-08-18T01:29:48.403Z,71.18
2017-08-18T01:32:16.026Z,72.45
2017-08-18T01:34:43.426Z,71.89
2017-08-18T01:37:11.038Z,72.31
2017-08-18T01:39:38.439Z,71.84
2017-08-18T01:42:05.842Z,71.57
2017-08-18T01:44:33.452Z,72.28
2017-08-18T01:47:00.854Z,71.49
2017-08-18T01:49:28.252Z,70.37
2017-08-18T01:51:55.867Z,70.69
2017-08-18T01:54:23.268Z,70.95
2017-08-18T01:56:50.667Z,72.30
2017-08-18T01:59:18.062Z,71.23
2017-08-18T02:01:45.462Z,71.00
2017-08-18T02:04:12.863Z,71.04
2017-08-18T02:06:40.260Z,71.78
2017-08-18T02:09:07.656Z,71.37
2017-08-18T02:11:35.066Z,71.45
2017-08-18T02:14:02.463Z,70.98
2017-08-18T02:16:29.879Z,72.30
2017-08-18T02:18:57.294Z,71.61
2017-08-18T02:21:24.694Z,72.92
2017-08-18T02:23:52.111Z,73.01
2017-08-18T02:26:19.570Z,72.14
2017-08-18T02:28:46.948Z,72.86
2017-08-18T02:31:15.674Z,72.44
2017-08-18T02:33:43.084Z,72.54
2017-08-18T02:36:10.483Z,73.62
2017-08-18T02:38:37.887Z,73.80
2017-08-18T02:41:05.491Z,72.83
2017-08-18T02:43:32.900Z,72.56
2017-08-18T02:46:00.295Z,73.10
2017-08-18T02:48:27.698Z,71.94
2017-08-18T02:50:55.097Z,73.87
2017-08-18T02:53:22.499Z,72.98
2017-08-18T02:55:49.903Z,73.87
2017-08-18T02:58:17.332Z,73.95
2017-08-18T03:00:44.739Z,74.14
2017-08-18T03:03:12.151Z,74.15
2017-08-18T03:05:39.768Z,73.07
2017-08-18T03:08:07.162Z,72.36
2017-08-18T03:10:34.563Z,72.12
2017-08-18T03:13:02.141Z,72.28
2017-08-18T03:15:29.540Z,71.07
2017-08-18T03:17:57.142Z,71.81
2017-08-18T03:20:24.768Z,71.36
2017-08-18T03:22:52.213Z,71.40
2017-08-18T03:25:19.612Z,72.27
2017-08-18T03:27:47.022Z,71.57
2017-08-18T03:30:14.424Z,71.09
2017-08-18T03:32:42.026Z,72.51
2017-08-18T03:35:09.431Z,72.06
2017-08-18T03:37:37.047Z,72.11
2017-08-18T03:40:04.451Z,72.25
2017-08-18T03:42:31.846Z,73.09
2017-08-18T03:44:59.246Z,72.01
2017-08-18T03:47:26.639Z,71.74
2017-08-18T03:49:54.039Z,72.55
2017-08-18T03:52:21.659Z,73.26
2017-08-18T03:54:49.057Z,72.27
2017-08-18T03:57:16.459Z,73.17
2017-08-18T03:59:43.851Z,73.30
2017-08-18T04:02:11.254Z,73.45
2017-08-18T04:04:38.654Z,72.85
2017-08-18T04:07:06.070Z,73.47
2017-08-18T04:09:33.473Z,72.97
2017-08-18T04:12:00.876Z,73.59
2017-08-18T04:14:28.270Z,73.65
2017-08-18T04:16:55.666Z,74.11
2017-08-18T04:19:23.071Z,74.08
2017-08-18T04:21:50.474Z,74.99
2017-08-18T04:24:17.883Z,74.59
2017-08-18T04:26:45.291Z,74.08
2017-08-18T04:29:12.682Z,73.07
2017-08-18T04:31:40.087Z,73.55
2017-08-18T04:34:07.479Z,73.60
2017-08-18T04:36:34.893Z,72.64
2017-08-18T04:39:02.287Z,72.56
2017-08-18T04:41:29.680Z,73.57
2017-08-18T04:43:57.079Z,73.77
2017-08-18T04:46:25.379Z,73.69
2017-08-18T04:48:52.783Z,73.04
2017-08-18T04:51:20.166Z,73.25
2017-08-18T04:53:47.563Z,73.82
2017-08-18T04:56:14.967Z,73.17
2017-08-18T04:58:42.368Z,72.37
2017-08-18T05:01:09.761Z,72.52
2017-08-18T05:03:37.161Z,74.04
2017-08-18T05:06:04.552Z,74.75
2017-08-18T05:08:31.959Z,74.44
2017-08-18T05:10:59.570Z,75.64
2017-08-18T05:13:26.971Z,74.53
2017-08-18T05:15:54.362Z,71.76
2017-08-18T05:18:21.765Z,73.44
2017-08-18T05:20:49.150Z,74.14
2017-08-18T05:23:16.538Z,74.35
2017-08-18T05:25:43.932Z,74.16
2017-08-18T05:28:11.332Z,73.32
2017-08-18T05:30:38.726Z,75.51
2017-08-18T05:33:06.367Z,73.84
2017-08-18T05:35:34.030Z,73.65
2017-08-18T05:38:01.420Z,73.34
2017-08-18T05:40:28.814Z,73.74
2017-08-18T05:42:56.207Z,74.22
2017-08-18T05:45:23.854Z,73.98
2017-08-18T05:47:51.239Z,73.23
2017-08-18T05:50:18.639Z,72.65
2017-08-18T05:52:46.028Z,74.50
2017-08-18T05:55:13.435Z,74.76
2017-08-18T05:57:40.831Z,75.19
2017-08-18T06:00:08.227Z,73.90
2017-08-18T06:02:35.614Z,75.78
2017-08-18T06:05:03.018Z,76.10
2017-08-18T06:07:30.410Z,76.46
2017-08-18T06:09:57.817Z,76.70
2017-08-18T06:12:25.206Z,75.13
2017-08-18T06:14:52.619Z,76.36
2017-08-18T06:17:20.008Z,74.58
2017-08-18T06:19:47.432Z,74.56
2017-08-18T06:22:14.827Z,74.22
2017-08-18T06:24:42.227Z,73.10
2017-08-18T06:27:09.615Z,74.53
2017-08-18T06:29:37.017Z,74.10
2017-08-18T06:32:04.405Z,73.41
2017-08-18T06:34:31.790Z,74.82
2017-08-18T06:36:59.186Z,75.21
2017-08-18T06:39:26.599Z,75.08
2017-08-18T06:41:53.989Z,75.85
2017-08-18T06:44:22.101Z,73.96
2017-08-18T06:46:49.513Z,73.44
2017-08-18T06:49:16.915Z,73.23
2017-08-18T06:51:44.298Z,72.89
2017-08-18T06:54:11.686Z,74.10
2017-08-18T06:56:39.091Z,74.01
2017-08-18T06:59:06.475Z,73.81
2017-08-18T07:01:33.877Z,72.60
2017-08-18T07:04:01.262Z,72.81
2017-08-18T07:06:28.655Z,73.35
2017-08-18T07:08:56.041Z,73.30
2017-08-18T07:11:23.436Z,72.98
2017-08-18T07:13:50.855Z,73.06
2017-08-18T07:16:18.234Z,72.55
2017-08-18T07:18:45.874Z,71.83
2017-08-18T07:21:13.281Z,71.83
2017-08-18T07:23:40.670Z,72.85
2017-08-18T07:26:08.064Z,73.05
2017-08-18T07:28:35.473Z,72.52
2017-08-18T07:31:02.858Z,72.42
2017-08-18T07:33:30.261Z,73.80
2017-08-18T07:35:57.638Z,73.71
2017-08-18T07:38:25.326Z,73.52
2017-08-18T07:40:52.715Z,73.22
2017-08-18T07:43:20.123Z,72.95
2017-08-18T07:45:47.514Z,72.30
2017-08-18T07:48:14.907Z,72.05
2017-08-18T07:50:42.303Z,73.13
2017-08-18T07:53:09.695Z,73.64
2017-08-18T07:55:37.112Z,72.69
2017-08-18T07:58:04.495Z,72.65
2017-08-18T08:00:31.886Z,72.80
2017-08-18T08:02:59.283Z,71.81
2017-08-18T08:05:26.694Z,71.77
2017-08-18T08:07:54.083Z,71.94
2017-08-18T08:10:21.466Z,71.67
2017-08-18T08:12:48.866Z,70.87
2017-08-18T08:15:16.267Z,70.50
2017-08-18T08:17:43.659Z,72.30
2017-08-18T08:20:11.054Z,71.77
2017-08-18T08:22:38.442Z,71.37
2017-08-18T08:25:05.828Z,72.63
2017-08-18T08:27:33.230Z,72.48
2017-08-18T08:30:00.622Z,72.75
2017-08-18T08:32:28.014Z,72.25
2017-08-18T08:34:55.398Z,72.67
2017-08-18T08:37:22.794Z,71.90
2017-08-18T08:39:50.191Z,72.19
2017-08-18T08:42:17.592Z,72.64
2017-08-18T08:44:44.982Z,72.47
2017-08-18T08:47:12.387Z,72.90
2017-08-18T08:49:39.771Z,72.60
2017-08-18T08:52:07.170Z,72.92
2017-08-18T08:54:34.560Z,72.84
2017-08-18T08:57:01.971Z,72.98
2017-08-18T08:59:29.370Z,73.19
2017-08-18T09:01:56.754Z,71.69
2017-08-18T09:04:24.155Z,72.63
2017-08-18T09:06:51.548Z,72.51
2017-08-18T09:09:18.951Z,72.87
2017-08-18T09:11:46.342Z,73.10
2017-08-18T09:14:13.738Z,73.62
2017-08-18T09:16:41.126Z,73.36
2017-08-18T09:19:08.523Z,72.67
2017-08-18T09:21:35.915Z,73.66
2017-08-18T09:24:03.526Z,72.67
2017-08-18T09:26:30.916Z,72.65
2017-08-18T09:28:58.314Z,73.01
2017-08-18T09:31:25.705Z,73.88
2017-08-18T09:33:53.111Z,72.42
2017-08-18T09:36:20.504Z,72.82
2017-08-18T09:38:48.149Z,71.90
2017-08-18T09:41:15.534Z,71.59
2017-08-18T09:43:42.934Z,71.27
2017-08-18T09:46:10.326Z,71.58
2017-08-18T09:48:49.562Z,72.19
2017-08-18T09:51:28.559Z,71.40
2017-08-18T09:57:16.359Z,71.71
2017-08-18T09:59:43.767Z,72.27
2017-08-18T10:02:11.154Z,72.46
2017-08-18T10:04:38.553Z,72.80
2017-08-18T10:07:06.634Z,72.59
2017-08-18T10:09:34.279Z,72.08
2017-08-18T10:12:01.670Z,72.32
2017-08-18T10:14:29.055Z,72.21
2017-08-18T10:16:56.451Z,72.41
2017-08-18T10:19:23.834Z,72.41
2017-08-18T10:21:51.251Z,72.50
2017-08-18T10:24:18.642Z,72.56
2017-08-18T10:26:46.039Z,73.45
2017-08-18T10:29:13.424Z,75.15
2017-08-18T10:31:40.819Z,73.30
2017-08-18T10:34:08.227Z,75.42
2017-08-18T10:36:35.625Z,74.46
2017-08-18T10:39:03.003Z,74.08
2017-08-18T10:41:30.390Z,72.23
2017-08-18T10:43:57.806Z,72.09
2017-08-18T10:46:25.184Z,74.90
2017-08-18T10:48:52.566Z,74.89
2017-08-18T10:51:19.958Z,75.21
2017-08-18T10:53:47.347Z,75.27
2017-08-18T10:56:14.752Z,74.92
2017-08-18T10:58:42.157Z,73.95
2017-08-18T11:01:09.551Z,75.18
2017-08-18T11:03:36.943Z,75.15
2017-08-18T11:06:04.339Z,75.05
2017-08-18T11:08:31.736Z,74.30
2017-08-18T11:10:59.147Z,73.32
2017-08-18T11:13:26.538Z,73.92
2017-08-18T11:15:53.927Z,74.54
2017-08-18T11:18:21.338Z,73.53
2017-08-18T11:20:48.727Z,73.95
2017-08-18T11:23:16.122Z,73.60
2017-08-18T11:25:43.515Z,73.20
2017-08-18T11:28:10.906Z,73.09
2017-08-18T11:30:38.307Z,71.83
2017-08-18T11:33:05.722Z,72.47
2017-08-18T11:35:33.138Z,71.93
2017-08-18T11:38:00.535Z,72.46
2017-08-18T11:40:27.927Z,72.86
2017-08-18T11:42:55.333Z,72.28
2017-08-18T11:45:22.746Z,72.25
2017-08-18T11:47:50.178Z,72.55
2017-08-18T11:50:17.559Z,71.85
2017-08-18T11:52:44.943Z,72.44
2017-08-18T11:55:12.336Z,73.42
2017-08-18T11:57:39.726Z,72.94
2017-08-18T12:00:07.119Z,72.57
2017-08-18T12:02:34.511Z,72.99
2017-08-18T12:05:01.906Z,72.21
2017-08-18T12:07:29.508Z,71.37
2017-08-18T12:09:56.899Z,73.28
2017-08-18T12:12:24.305Z,72.89
2017-08-18T12:14:51.692Z,74.48
2017-08-18T12:17:19.079Z,72.91
2017-08-18T12:19:46.487Z,72.97
2017-08-18T12:22:13.877Z,72.79
2017-08-18T12:24:41.263Z,72.37
2017-08-18T12:27:08.654Z,72.36
2017-08-18T12:29:36.058Z,71.71
2017-08-18T12:32:03.455Z,71.30
2017-08-18T12:34:30.843Z,72.00
2017-08-18T12:36:58.238Z,70.94
2017-08-18T12:39:25.628Z,70.00
2017-08-18T12:41:53.039Z,70.89
2017-08-18T12:44:20.411Z,71.08
2017-08-18T12:46:47.808Z,70.53
2017-08-18T12:49:15.195Z,70.53
2017-08-18T12:51:42.591Z,69.61
2017-08-18T12:54:09.980Z,69.76
2017-08-18T12:56:37.381Z,70.90
2017-08-18T12:59:04.775Z,70.47
2017-08-18T13:01:32.166Z,69.54
2017-08-18T13:03:59.550Z,69.16
2017-08-18T13:06:26.955Z,69.09
2017-08-18T13:08:54.347Z,69.23
2017-08-18T13:11:22.021Z,68.78
2017-08-18T13:13:49.407Z,68.48
2017-08-18T13:16:16.815Z,68.10
2017-08-18T13:18:44.202Z,66.00
2017-08-18T13:21:11.612Z,65.07
2017-08-18T13:23:38.986Z,66.43
2017-08-18T13:26:06.415Z,66.70
2017-08-18T13:28:33.800Z,67.12
2017-08-18T13:31:01.202Z,66.87
2017-08-18T13:33:28.579Z,66.17
2017-08-18T13:35:55.963Z,65.87
2017-08-18T13:38:23.355Z,66.63
2017-08-18T13:40:50.750Z,66.72
2017-08-18T13:43:18.154Z,67.26
2017-08-18T13:45:45.534Z,67.21
2017-08-18T13:48:12.937Z,66.35
2017-08-18T13:50:40.331Z,66.59
2017-08-18T13:53:07.719Z,67.08
2017-08-18T13:55:35.103Z,66.27
2017-08-18T13:58:02.494Z,65.72
2017-08-18T14:00:29.883Z,65.52
2017-08-18T14:02:57.288Z,65.35
2017-08-18T14:05:24.683Z,65.54
2017-08-18T14:07:52.303Z,65.75
2017-08-18T14:10:19.701Z,65.58
2017-08-18T14:12:47.114Z,65.40
2017-08-18T14:15:14.496Z,65.09
2017-08-18T14:17:41.883Z,64.53
2017-08-18T14:20:09.270Z,64.61
2017-08-18T14:22:36.660Z,65.02
2017-08-18T14:25:09.743Z,64.52
2017-08-18T14:27:42.646Z,64.70
2017-08-18T14:30:10.042Z,64.84
2017-08-18T14:32:37.436Z,65.09
2017-08-18T14:35:04.818Z,65.17
2017-08-18T14:37:32.218Z,65.13
2017-08-18T14:39:59.606Z,64.42
2017-08-18T14:42:26.995Z,65.02
2017-08-18T14:44:54.382Z,65.14
2017-08-18T14:47:21.768Z,65.02
2017-08-18T14:49:49.163Z,64.65
2017-08-18T14:52:16.772Z,64.42
2017-08-18T14:54:44.168Z,64.59
2017-08-18T14:57:11.563Z,64.42
2017-08-18T14:59:38.968Z,64.48
2017-08-18T15:02:06.363Z,65.10
2017-08-18T15:04:33.764Z,64.83
2017-08-18T15:07:01.152Z,64.82
2017-08-18T15:09:28.551Z,65.28
2017-08-18T15:11:55.942Z,65.26
2017-08-18T15:14:23.339Z,65.73
2017-08-18T15:16:50.750Z,64.88
2017-08-18T15:19:18.134Z,64.71
2017-08-18T15:21:45.535Z,64.60
2017-08-18T15:24:12.935Z,64.46
2017-08-18T15:26:40.314Z,64.10
2017-08-18T15:29:07.703Z,64.33
2017-08-18T15:31:35.101Z,64.34
2017-08-18T15:34:02.499Z,64.34
2017-08-18T15:36:29.894Z,64.51
2017-08-18T15:38:57.298Z,64.28
2017-08-18T15:41:24.968Z,64.34
2017-08-18T15:43:52.349Z,64.35
2017-08-18T15:46:19.742Z,63.81
2017-08-18T15:48:47.131Z,63.80
2017-08-18T15:51:14.788Z,64.14
2017-08-18T15:53:42.175Z,64.13
2017-08-18T15:56:09.562Z,64.43
2017-08-18T15:58:36.959Z,63.95
2017-08-18T16:01:04.346Z,64.14
2017-08-18T16:03:31.738Z,63.47
2017-08-18T16:05:59.124Z,64.76
2017-08-18T16:08:26.514Z,64.59
2017-08-18T16:10:53.912Z,64.62
2017-08-18T16:13:21.307Z,65.02
2017-08-18T16:15:48.683Z,65.21
2017-08-18T16:18:16.086Z,64.96
2017-08-18T16:20:43.484Z,64.55
2017-08-18T16:23:10.879Z,65.88
2017-08-18T16:25:38.267Z,66.59
2017-08-18T16:28:05.658Z,66.86
2017-08-18T16:30:33.072Z,67.16
2017-08-18T16:33:00.476Z,66.46
2017-08-18T16:35:27.872Z,66.38
2017-08-18T16:37:55.278Z,66.55
2017-08-18T16:40:22.876Z,66.74
2017-08-18T16:42:50.279Z,66.40
2017-08-18T16:45:17.674Z,66.73
2017-08-18T16:47:45.066Z,66.26
2017-08-18T16:50:12.464Z,66.40
2017-08-18T16:52:39.847Z,66.27
2017-08-18T16:55:07.243Z,66.56
2017-08-18T16:57:34.722Z,66.10
2017-08-18T17:00:02.108Z,66.11
2017-08-18T17:02:29.494Z,65.93
2017-08-18T17:04:56.893Z,65.86
2017-08-18T17:07:24.275Z,66.04
2017-08-18T17:09:51.681Z,66.75
2017-08-18T17:12:19.078Z,67.99
2017-08-18T17:14:46.477Z,67.30
2017-08-18T17:17:13.870Z,67.90
2017-08-18T17:19:41.267Z,68.27
2017-08-18T17:22:08.662Z,67.56
2017-08-18T17:24:36.078Z,69.30
2017-08-18T17:27:03.474Z,68.60
2017-08-18T17:29:30.867Z,68.95
2017-08-18T17:31:58.255Z,70.10
2017-08-18T17:34:25.666Z,70.37
2017-08-18T17:36:53.063Z,71.03
2017-08-18T17:39:20.467Z,69.96
2017-08-18T17:41:47.866Z,69.74
2017-08-18T17:44:15.254Z,71.09
2017-08-18T17:46:42.660Z,70.27
2017-08-18T17:49:10.051Z,70.04
2017-08-18T17:51:37.468Z,69.94
2017-08-18T17:54:04.861Z,71.64
2017-08-18T17:56:32.263Z,73.33
2017-08-18T17:58:59.655Z,74.09
2017-08-18T18:01:27.051Z,72.81
2017-08-18T18:03:54.671Z,72.34
2017-08-18T18:06:22.307Z,72.18
2017-08-18T18:08:49.700Z,71.82
2017-08-18T18:11:17.091Z,70.93
2017-08-18T18:13:44.474Z,70.24
2017-08-18T18:16:11.888Z,71.06
2017-08-18T18:18:39.276Z,72.75
2017-08-18T18:21:06.671Z,64.88
2017-08-18T18:23:34.272Z,64.58
2017-08-18T18:26:01.682Z,66.29
2017-08-18T18:28:29.051Z,66.45
2017-08-18T18:30:56.433Z,67.27
2017-08-18T18:33:23.835Z,68.22
2017-08-18T18:35:51.218Z,68.07
2017-08-18T18:38:18.611Z,67.03
2017-08-18T18:40:46.012Z,66.42
2017-08-18T18:43:13.408Z,66.68
2017-08-18T18:45:40.786Z,67.04
2017-08-18T18:48:08.187Z,67.26
2017-08-18T18:50:35.593Z,67.35
2017-08-18T18:53:02.990Z,66.79
2017-08-18T18:55:30.380Z,66.94
2017-08-18T18:57:57.780Z,66.57
2017-08-18T19:00:25.163Z,66.32
2017-08-18T19:02:52.558Z,65.85
2017-08-18T19:05:19.958Z,65.52
2017-08-18T19:07:47.360Z,65.75
2017-08-18T19:10:14.731Z,66.02
2017-08-18T19:12:42.139Z,65.82
2017-08-18T19:15:09.529Z,65.64
2017-08-18T19:17:36.962Z,65.85
2017-08-18T19:20:04.355Z,65.73
2017-08-18T19:22:31.767Z,66.33
2017-08-18T19:24:59.162Z,66.28
2017-08-18T19:27:26.554Z,65.83
2017-08-18T19:29:53.962Z,65.93
2017-08-18T19:32:21.363Z,66.55
2017-08-18T19:34:48.750Z,67.02
2017-08-18T19:37:16.140Z,66.21
2017-08-18T19:39:43.555Z,66.11
2017-08-18T19:42:10.943Z,66.17
2017-08-18T19:44:38.338Z,65.66
2017-08-18T19:47:05.718Z,65.20
2017-08-18T19:49:33.335Z,64.77
2017-08-18T19:52:00.726Z,64.86
2017-08-18T19:54:28.127Z,65.50
2017-08-18T19:56:55.520Z,65.47
2017-08-18T19:59:22.915Z,65.60
2017-08-18T20:01:50.311Z,65.59
2017-08-18T20:04:17.731Z,66.19
2017-08-18T20:06:45.139Z,66.61
2017-08-18T20:09:12.565Z,66.22
2017-08-18T20:11:40.169Z,66.38
2017-08-18T20:14:07.551Z,66.69
2017-08-18T20:16:34.953Z,67.06
2017-08-18T20:19:02.340Z,67.33
2017-08-18T20:21:29.735Z,67.24
2017-08-18T20:23:57.210Z,67.18
2017-08-18T20:26:24.609Z,67.42
2017-08-18T20:28:52.018Z,67.26
2017-08-18T20:31:19.423Z,67.40
2017-08-18T20:33:46.821Z,67.79
2017-08-18T20:36:14.222Z,69.02
2017-08-18T20:38:41.607Z,69.17
2017-08-18T20:41:09.007Z,70.12
2017-08-18T20:43:36.395Z,70.06
2017-08-18T20:46:03.808Z,70.46
2017-08-18T20:48:31.187Z,70.71
2017-08-18T20:50:58.619Z,70.40
2017-08-18T20:53:26.004Z,71.51
2017-08-18T20:55:53.395Z,70.84
2017-08-18T20:58:20.787Z,70.68
2017-08-18T21:00:48.202Z,70.44
2017-08-18T21:03:15.591Z,70.14
2017-08-18T21:05:42.990Z,71.46
2017-08-18T21:08:10.424Z,72.10
2017-08-18T21:10:37.818Z,72.40
2017-08-18T21:13:05.227Z,71.91
2017-08-18T21:15:32.618Z,72.03
2017-08-18T21:18:00.768Z,72.66
2017-08-18T21:20:28.162Z,72.30
2017-08-18T21:22:55.774Z,72.31
2017-08-18T21:25:23.390Z,72.46
2017-08-18T21:27:50.786Z,72.51
2017-08-18T21:30:18.175Z,72.68
2017-08-18T21:32:45.580Z,71.92
2017-08-18T21:35:12.967Z,72.59
2017-08-18T21:37:40.355Z,71.74
2017-08-18T21:40:07.966Z,71.41
2017-08-18T21:42:35.366Z,71.25
2017-08-18T21:45:02.759Z,70.50
2017-08-18T21:47:30.176Z,70.15
2017-08-18T21:49:57.569Z,69.95
2017-08-18T21:52:24.979Z,69.90
2017-08-18T21:54:52.411Z,69.78
2017-08-18T21:57:19.819Z,70.05
2017-08-18T21:59:47.217Z,69.94
2017-08-18T22:02:14.611Z,69.89
2017-08-18T22:04:41.999Z,69.99
2017-08-18T22:07:09.407Z,70.55
2017-08-18T22:09:36.806Z,70.11
2017-08-18T22:12:04.203Z,70.58
2017-08-18T22:14:31.604Z,71.22
2017-08-18T22:16:59.011Z,71.26
2017-08-18T22:19:26.426Z,71.52
2017-08-18T22:21:53.830Z,71.53
2017-08-18T22:24:21.245Z,71.75
2017-08-18T22:26:48.652Z,70.90
2017-08-18T22:29:16.047Z,71.22
2017-08-18T22:31:43.456Z,71.21
2017-08-18T22:34:10.856Z,71.27
2017-08-18T22:36:38.258Z,71.21
2017-08-18T22:39:05.667Z,70.97
2017-08-18T22:41:33.078Z,70.99
2017-08-18T22:44:01.034Z,71.42
2017-08-18T22:46:28.439Z,71.56
2017-08-18T22:48:55.830Z,71.75
2017-08-18T22:51:23.231Z,71.29
2017-08-18T22:53:50.633Z,72.03
2017-08-18T22:56:18.051Z,72.18
2017-08-18T22:58:45.447Z,72.26
2017-08-18T23:01:12.847Z,73.35
2017-08-18T23:03:40.282Z,73.09
2017-08-18T23:06:07.681Z,73.47
2017-08-18T23:08:35.087Z,73.64
2017-08-18T23:11:02.714Z,73.08
2017-08-18T23:13:30.112Z,72.60
2017-08-18T23:15:57.507Z,72.28
2017-08-18T23:18:24.913Z,71.56
2017-08-18T23:20:52.319Z,71.46
2017-08-18T23:23:19.708Z,71.11
2017-08-18T23:25:47.107Z,71.14
2017-08-18T23:28:14.494Z,70.85
2017-08-18T23:30:41.890Z,70.73
2017-08-18T23:33:09.291Z,70.26
2017-08-18T23:35:36.689Z,70.02
2017-08-18T23:38:04.298Z,69.84
2017-08-18T23:40:31.686Z,69.41
2017-08-18T23:42:59.095Z,69.48
2017-08-18T23:45:26.503Z,70.33
2017-08-18T23:47:53.895Z,71.30
2017-08-18T23:50:21.279Z,70.88
2017-08-18T23:52:48.679Z,70.54
2017-08-18T23:55:16.071Z,70.66
2017-08-18T23:57:43.470Z,70.15
